Time,TemperatureF,DewpointF,PressureIn,WindDirection,WindDirectionDegrees,WindSpeedMPH,WindSpeedGustMPH,Humidity,HourlyPrecipIn,Conditions,Clouds,dailyrainin,SoftwareType,DateUTC
2013-09-29 00:00:00,50.4,39.1,30.05,North,32767,5.0,14.0,65,0.00,,,0.00,Wunderground v.1.15,2013-09-29 05:00:00,
2013-09-29 00:10:00,49.9,39.4,30.06,North,32767,5.0,14.0,67,0.00,,,0.00,Wunderground v.1.15,2013-09-29 05:10:00,
2013-09-29 00:20:00,49.5,39.0,30.06,North,32767,5.0,5.0,67,0.00,,,0.00,Wunderground v.1.15,2013-09-29 05:20:00,
2013-09-29 00:30:00,49.5,39.0,30.06,North,32767,4.0,14.0,67,0.00,,,0.00,Wunderground v.1.15,2013-09-29 05:30:00,
2013-09-29 00:40:00,49.4,38.9,30.06,North,32767,4.0,14.0,67,0.00,,,0.00,Wunderground v.1.15,2013-09-29 05:40:00,
2013-09-29 00:50:00,48.9,38.8,30.05,North,32767,4.0,14.0,68,0.00,,,0.00,Wunderground v.1.15,2013-09-29 05:50:00,
2013-09-29 01:00:00,48.7,39.0,30.05,North,32767,4.0,14.0,69,0.00,,,0.00,Wunderground v.1.15,2013-09-29 06:00:00,
2013-09-29 01:10:00,48.6,38.9,30.05,North,32767,4.0,14.0,69,0.00,,,0.00,Wunderground v.1.15,2013-09-29 06:10:00,
2013-09-29 01:30:00,48.5,39.2,30.05,North,32767,4.0,14.0,70,0.00,,,0.00,Wunderground v.1.15,2013-09-29 06:30:00,
2013-09-29 01:40:00,48.6,38.9,30.05,North,32767,4.0,4.0,69,0.00,,,0.00,Wunderground v.1.15,2013-09-29 06:40:00,
2013-09-29 01:50:00,48.6,38.9,30.05,North,32767,4.0,14.0,69,0.00,,,0.00,Wunderground v.1.15,2013-09-29 06:50:00,
2013-09-29 02:00:00,48.2,38.9,30.05,North,32767,6.0,14.0,70,0.00,,,0.00,Wunderground v.1.15,2013-09-29 07:00:00,
2013-09-29 02:10:00,47.8,38.8,30.05,North,32767,6.0,14.0,71,0.00,,,0.00,Wunderground v.1.15,2013-09-29 07:10:00,
2013-09-29 02:20:00,48.0,38.7,30.05,North,32767,6.0,6.0,70,0.00,,,0.00,Wunderground v.1.15,2013-09-29 07:20:00,
2013-09-29 02:30:00,48.1,38.8,30.05,North,32767,5.0,5.0,70,0.00,,,0.00,Wunderground v.1.15,2013-09-29 07:30:00,
2013-09-29 02:40:00,48.1,38.4,30.04,North,32767,6.0,14.0,69,0.00,,,0.00,Wunderground v.1.15,2013-09-29 07:40:00,
2013-09-29 02:50:00,47.8,38.5,30.04,North,32767,5.0,14.0,70,0.00,,,0.00,Wunderground v.1.15,2013-09-29 07:50:00,
2013-09-29 03:00:00,47.2,38.6,30.04,North,32767,5.0,6.0,72,0.00,,,0.00,Wunderground v.1.15,2013-09-29 08:00:00,
2013-09-29 03:10:00,47.3,38.7,30.04,North,32767,5.0,5.0,72,0.00,,,0.00,Wunderground v.1.15,2013-09-29 08:10:00,
2013-09-29 03:20:00,47.7,38.8,30.04,North,32767,6.0,6.0,71,0.00,,,0.00,Wunderground v.1.15,2013-09-29 08:20:00,
2013-09-29 03:30:00,47.7,38.8,30.03,North,32767,5.0,5.0,71,0.00,,,0.00,Wunderground v.1.15,2013-09-29 08:30:00,
2013-09-29 03:40:00,47.3,38.7,30.03,North,32767,0.0,0.0,72,0.00,,,0.00,Wunderground v.1.15,2013-09-29 08:40:00,
2013-09-29 03:50:00,49.2,39.1,30.03,North,32767,0.0,7.0,68,0.00,,,0.00,Wunderground v.1.15,2013-09-29 08:50:00,
2013-09-29 04:10:00,50.5,39.2,30.03,North,32767,2.0,2.0,65,0.00,,,0.00,Wunderground v.1.15,2013-09-29 09:10:00,
2013-09-29 04:20:00,50.1,39.2,30.03,North,32767,1.0,7.0,66,0.00,,,0.00,Wunderground v.1.15,2013-09-29 09:20:00,
2013-09-29 04:30:00,49.9,39.0,30.03,North,32767,1.0,1.0,66,0.00,,,0.00,Wunderground v.1.15,2013-09-29 09:30:00,
2013-09-29 04:40:00,49.3,38.8,30.03,North,32767,0.0,7.0,67,0.00,,,0.00,Wunderground v.1.15,2013-09-29 09:40:00,
2013-09-29 04:50:00,48.9,38.8,30.02,North,32767,0.0,7.0,68,0.00,,,0.00,Wunderground v.1.15,2013-09-29 09:50:00,
2013-09-29 05:00:00,48.7,39.0,30.02,North,32767,0.0,7.0,69,0.00,,,0.00,Wunderground v.1.15,2013-09-29 10:00:00,
2013-09-29 05:10:00,47.4,38.5,30.02,North,32767,0.0,7.0,71,0.00,,,0.00,Wunderground v.1.15,2013-09-29 10:10:00,
2013-09-29 05:20:00,47.3,38.4,30.02,North,32767,0.0,7.0,71,0.00,,,0.00,Wunderground v.1.15,2013-09-29 10:20:00,
2013-09-29 05:40:00,45.3,37.8,30.02,North,32767,0.0,7.0,75,0.00,,,0.00,Wunderground v.1.15,2013-09-29 10:40:00,
2013-09-29 05:50:00,45.3,37.8,30.01,North,32767,0.0,7.0,75,0.00,,,0.00,Wunderground v.1.15,2013-09-29 10:50:00,
2013-09-29 06:00:00,45.3,37.8,30.02,North,32767,0.0,7.0,75,0.00,,,0.00,Wunderground v.1.15,2013-09-29 11:00:00,
2013-09-29 06:10:00,45.4,38.3,30.01,North,32767,1.0,7.0,76,0.00,,,0.00,Wunderground v.1.15,2013-09-29 11:10:00,
2013-09-29 06:20:00,45.6,38.1,30.01,North,32767,3.0,7.0,75,0.00,,,0.00,Wunderground v.1.15,2013-09-29 11:20:00,
2013-09-29 06:30:00,44.9,37.8,30.01,North,32767,4.0,4.0,76,0.00,,,0.00,Wunderground v.1.15,2013-09-29 11:30:00,
2013-09-29 06:50:00,45.2,37.7,30.00,North,32767,5.0,7.0,75,0.00,,,0.00,Wunderground v.1.15,2013-09-29 11:50:00,
2013-09-29 07:00:00,44.8,37.7,30.00,North,32767,5.0,5.0,76,0.00,,,0.00,Wunderground v.1.15,2013-09-29 12:00:00,
2013-09-29 07:10:00,45.6,37.8,30.00,North,32767,5.0,7.0,74,0.00,,,0.00,Wunderground v.1.15,2013-09-29 12:10:00,
2013-09-29 07:20:00,45.5,38.0,30.00,North,32767,5.0,5.0,75,0.00,,,0.00,Wunderground v.1.15,2013-09-29 12:20:00,
2013-09-29 07:30:00,44.8,37.7,30.00,North,32767,5.0,5.0,76,0.00,,,0.00,Wunderground v.1.15,2013-09-29 12:30:00,
2013-09-29 07:40:00,44.5,37.7,30.00,North,32767,5.0,7.0,77,0.00,,,0.00,Wunderground v.1.15,2013-09-29 12:40:00,
2013-09-29 07:50:00,43.6,37.5,30.00,North,32767,5.0,5.0,79,0.00,,,0.00,Wunderground v.1.15,2013-09-29 12:50:00,
2013-09-29 08:00:00,44.0,37.9,30.00,North,32767,4.0,7.0,79,0.00,,,0.00,Wunderground v.1.15,2013-09-29 13:00:00,
2013-09-29 08:10:00,45.1,39.0,29.99,North,32767,4.0,7.0,79,0.00,,,0.00,Wunderground v.1.15,2013-09-29 13:10:00,
2013-09-29 08:20:00,45.8,39.7,30.00,North,32767,5.0,5.0,79,0.00,,,0.00,Wunderground v.1.15,2013-09-29 13:20:00,
2013-09-29 08:30:00,47.4,40.2,30.00,North,32767,4.0,7.0,76,0.00,,,0.00,Wunderground v.1.15,2013-09-29 13:30:00,
2013-09-29 08:40:00,48.8,40.5,30.00,North,32767,5.0,5.0,73,0.00,,,0.00,Wunderground v.1.15,2013-09-29 13:40:00,
2013-09-29 08:50:00,50.1,41.4,30.00,North,32767,4.0,7.0,72,0.00,,,0.00,Wunderground v.1.15,2013-09-29 13:50:00,
2013-09-29 09:00:00,51.1,40.9,29.99,North,32767,5.0,7.0,68,0.00,,,0.00,Wunderground v.1.15,2013-09-29 14:00:00,
2013-09-29 09:10:00,51.9,41.7,29.99,North,32767,6.0,6.0,68,0.00,,,0.00,Wunderground v.1.15,2013-09-29 14:10:00,
2013-09-29 09:20:00,53.1,42.8,29.99,North,32767,4.0,4.0,68,0.00,,,0.00,Wunderground v.1.15,2013-09-29 14:20:00,
2013-09-29 09:30:00,54.2,42.7,29.99,North,32767,5.0,7.0,65,0.00,,,0.00,Wunderground v.1.15,2013-09-29 14:30:00,
2013-09-29 09:40:00,55.0,43.4,29.99,North,32767,6.0,6.0,65,0.00,,,0.00,Wunderground v.1.15,2013-09-29 14:40:00,
2013-09-29 09:50:00,55.9,43.1,29.98,North,32767,6.0,7.0,62,0.00,,,0.00,Wunderground v.1.15,2013-09-29 14:50:00,
2013-09-29 10:00:00,56.7,43.4,29.98,North,32767,7.0,7.0,61,0.00,,,0.00,Wunderground v.1.15,2013-09-29 15:00:00,
2013-09-29 10:10:00,57.9,43.7,29.98,North,32767,5.0,7.0,59,0.00,,,0.00,Wunderground v.1.15,2013-09-29 15:10:00,
2013-09-29 10:20:00,58.8,44.0,29.98,North,32767,6.0,7.0,58,0.00,,,0.00,Wunderground v.1.15,2013-09-29 15:20:00,
2013-09-29 10:30:00,59.7,44.9,29.98,North,32767,7.0,10.0,58,0.00,,,0.00,Wunderground v.1.15,2013-09-29 15:30:00,
2013-09-29 10:40:00,59.9,44.2,29.98,North,32767,8.0,8.0,56,0.00,,,0.00,Wunderground v.1.15,2013-09-29 15:40:00,
2013-09-29 10:50:00,60.8,44.5,29.97,North,32767,7.0,10.0,55,0.00,,,0.00,Wunderground v.1.15,2013-09-29 15:50:00,
2013-09-29 11:00:00,61.9,44.6,29.97,North,32767,9.0,9.0,53,0.00,,,0.00,Wunderground v.1.15,2013-09-29 16:00:00,
2013-09-29 11:10:00,63.0,45.6,29.97,North,32767,9.0,9.0,53,0.00,,,0.00,Wunderground v.1.15,2013-09-29 16:10:00,
2013-09-29 11:20:00,64.3,45.3,29.96,North,32767,8.0,9.0,50,0.00,,,0.00,Wunderground v.1.15,2013-09-29 16:20:00,
2013-09-29 11:30:00,65.2,42.7,29.96,North,32767,10.0,10.0,44,0.00,,,0.00,Wunderground v.1.15,2013-09-29 16:30:00,
2013-09-29 11:40:00,66.4,45.5,29.96,North,32767,7.0,7.0,47,0.00,,,0.00,Wunderground v.1.15,2013-09-29 16:40:00,
2013-09-29 11:50:00,67.4,44.1,29.95,North,32767,8.0,8.0,43,0.00,,,0.00,Wunderground v.1.15,2013-09-29 16:50:00,
2013-09-29 12:00:00,68.6,43.9,29.95,North,32767,9.0,16.0,41,0.00,,,0.00,Wunderground v.1.15,2013-09-29 17:00:00,
2013-09-29 12:10:00,69.6,42.9,29.94,North,32767,10.0,12.0,38,0.00,,,0.00,Wunderground v.1.15,2013-09-29 17:10:00,
2013-09-29 12:20:00,70.6,42.3,29.94,North,32767,12.0,12.0,36,0.00,,,0.00,Wunderground v.1.15,2013-09-29 17:20:00,
2013-09-29 12:30:00,71.6,41.0,29.93,North,32767,14.0,17.0,33,0.00,,,0.00,Wunderground v.1.15,2013-09-29 17:30:00,
2013-09-29 12:40:00,72.7,41.1,29.92,North,32767,14.0,18.0,32,0.00,,,0.00,Wunderground v.1.15,2013-09-29 17:40:00,
2013-09-29 12:50:00,72.9,41.3,29.92,North,32767,17.0,17.0,32,0.00,,,0.00,Wunderground v.1.15,2013-09-29 17:50:00,
2013-09-29 13:00:00,73.2,39.9,29.91,North,32767,16.0,16.0,30,0.00,,,0.00,Wunderground v.1.15,2013-09-29 18:00:00,
2013-09-29 13:10:00,73.7,39.5,29.90,North,32767,17.0,17.0,29,0.00,,,0.00,Wunderground v.1.15,2013-09-29 18:10:00,
2013-09-29 13:20:00,73.9,41.3,29.90,North,32767,16.0,16.0,31,0.00,,,0.00,Wunderground v.1.15,2013-09-29 18:20:00,
2013-09-29 13:30:00,74.1,41.5,29.89,North,32767,15.0,19.0,31,0.00,,,0.00,Wunderground v.1.15,2013-09-29 18:30:00,
2013-09-29 13:40:00,73.9,39.6,29.89,North,32767,18.0,19.0,29,0.00,,,0.00,Wunderground v.1.15,2013-09-29 18:40:00,
2013-09-29 13:50:00,74.2,39.9,29.88,North,32767,18.0,21.0,29,0.00,,,0.00,Wunderground v.1.15,2013-09-29 18:50:00,
2013-09-29 14:00:00,74.3,41.7,29.87,North,32767,18.0,18.0,31,0.00,,,0.00,Wunderground v.1.15,2013-09-29 19:00:00,
2013-09-29 14:10:00,75.2,41.6,29.86,North,32767,17.0,17.0,30,0.00,,,0.00,Wunderground v.1.15,2013-09-29 19:10:00,
2013-09-29 14:20:00,75.7,41.2,29.85,North,32767,20.0,20.0,29,0.00,,,0.00,Wunderground v.1.15,2013-09-29 19:20:00,
2013-09-29 14:30:00,76.0,40.5,29.84,North,32767,20.0,21.0,28,0.00,,,0.00,Wunderground v.1.15,2013-09-29 19:30:00,
2013-09-29 14:40:00,76.0,41.4,29.84,North,32767,20.0,20.0,29,0.00,,,0.00,Wunderground v.1.15,2013-09-29 19:40:00,
2013-09-29 14:50:00,76.3,42.6,29.83,North,32767,19.0,19.0,30,0.00,,,0.00,Wunderground v.1.15,2013-09-29 19:50:00,
2013-09-29 15:00:00,76.6,41.0,29.83,North,32767,19.0,19.0,28,0.00,,,0.00,Wunderground v.1.15,2013-09-29 20:00:00,
2013-09-29 15:10:00,77.0,38.5,29.82,North,32767,19.0,19.0,25,0.00,,,0.00,Wunderground v.1.15,2013-09-29 20:10:00,
2013-09-29 15:20:00,77.1,40.5,29.82,North,32767,17.0,18.0,27,0.00,,,0.00,Wunderground v.1.15,2013-09-29 20:20:00,
2013-09-29 15:30:00,77.2,38.6,29.82,North,32767,17.0,24.0,25,0.00,,,0.00,Wunderground v.1.15,2013-09-29 20:30:00,
2013-09-29 15:40:00,77.4,38.8,29.81,North,32767,17.0,17.0,25,0.00,,,0.00,Wunderground v.1.15,2013-09-29 20:40:00,
2013-09-29 15:50:00,77.3,38.7,29.81,North,32767,18.0,18.0,25,0.00,,,0.00,Wunderground v.1.15,2013-09-29 20:50:00,
2013-09-29 16:00:00,77.6,34.6,29.81,North,32767,17.0,20.0,21,0.00,,,0.00,Wunderground v.1.15,2013-09-29 21:00:00,
2013-09-29 16:10:00,77.4,34.4,29.81,North,32767,19.0,19.0,21,0.00,,,0.00,Wunderground v.1.15,2013-09-29 21:10:00,
2013-09-29 16:20:00,77.8,33.5,29.81,North,32767,17.0,17.0,20,0.00,,,0.00,Wunderground v.1.15,2013-09-29 21:20:00,
2013-09-29 16:30:00,77.5,33.2,29.80,North,32767,17.0,18.0,20,0.00,,,0.00,Wunderground v.1.15,2013-09-29 21:30:00,
2013-09-29 16:40:00,76.8,37.3,29.80,North,32767,17.0,17.0,24,0.00,,,0.00,Wunderground v.1.15,2013-09-29 21:40:00,
2013-09-29 16:50:00,77.8,37.0,29.80,North,32767,16.0,16.0,23,0.00,,,0.00,Wunderground v.1.15,2013-09-29 21:50:00,
2013-09-29 17:00:00,77.4,37.8,29.79,North,32767,17.0,17.0,24,0.00,,,0.00,Wunderground v.1.15,2013-09-29 22:00:00,
2013-09-29 17:10:00,77.5,38.9,29.79,North,32767,14.0,14.0,25,0.00,,,0.00,Wunderground v.1.15,2013-09-29 22:10:00,
2013-09-29 17:20:00,77.1,40.5,29.79,North,32767,15.0,15.0,27,0.00,,,0.00,Wunderground v.1.15,2013-09-29 22:20:00,
2013-09-29 17:30:00,77.2,38.6,29.79,North,32767,16.0,18.0,25,0.00,,,0.00,Wunderground v.1.15,2013-09-29 22:30:00,
2013-09-29 17:40:00,77.0,40.4,29.79,North,32767,14.0,14.0,27,0.00,,,0.00,Wunderground v.1.15,2013-09-29 22:40:00,
2013-09-29 17:50:00,76.4,39.9,29.78,North,32767,15.0,16.0,27,0.00,,,0.00,Wunderground v.1.15,2013-09-29 22:50:00,
2013-09-29 18:10:00,76.5,41.0,29.78,North,32767,13.0,14.0,28,0.00,,,0.00,Wunderground v.1.15,2013-09-29 23:10:00,
2013-09-29 18:20:00,76.1,41.5,29.77,North,32767,15.0,16.0,29,0.00,,,0.00,Wunderground v.1.15,2013-09-29 23:20:00,
2013-09-29 18:30:00,75.4,40.0,29.76,North,32767,14.0,17.0,28,0.00,,,0.00,Wunderground v.1.15,2013-09-29 23:30:00,
2013-09-29 18:40:00,74.6,41.1,29.76,North,32767,14.0,14.0,30,0.00,,,0.00,Wunderground v.1.15,2013-09-29 23:40:00,
2013-09-29 18:50:00,73.4,40.9,29.76,North,32767,13.0,13.0,31,0.00,,,0.00,Wunderground v.1.15,2013-09-29 23:50:00,
2013-09-29 19:00:00,72.7,41.9,29.76,North,32767,13.0,13.0,33,0.00,,,0.00,Wunderground v.1.15,2013-09-30 00:00:00,
2013-09-29 19:10:00,71.0,42.7,29.76,North,32767,12.0,12.0,36,0.00,,,0.00,Wunderground v.1.15,2013-09-30 00:10:00,
2013-09-29 19:20:00,69.8,43.0,29.76,North,32767,10.0,23.0,38,0.00,,,0.00,Wunderground v.1.15,2013-09-30 00:20:00,
2013-09-29 19:30:00,68.2,43.6,29.76,North,32767,9.0,9.0,41,0.00,,,0.00,Wunderground v.1.15,2013-09-30 00:30:00,
2013-09-29 19:40:00,67.4,44.1,29.77,North,32767,8.0,8.0,43,0.00,,,0.00,Wunderground v.1.15,2013-09-30 00:40:00,
2013-09-29 19:50:00,66.7,44.1,29.77,North,32767,7.0,7.0,44,0.00,,,0.00,Wunderground v.1.15,2013-09-30 00:50:00,
2013-09-29 20:00:00,65.4,44.1,29.77,North,32767,6.0,23.0,46,0.00,,,0.00,Wunderground v.1.15,2013-09-30 01:00:00,
2013-09-29 20:10:00,64.3,44.7,29.77,North,32767,6.0,6.0,49,0.00,,,0.00,Wunderground v.1.15,2013-09-30 01:10:00,
2013-09-29 20:20:00,63.2,44.8,29.77,North,32767,6.0,6.0,51,0.00,,,0.00,Wunderground v.1.15,2013-09-30 01:20:00,
2013-09-29 20:30:00,62.8,44.9,29.77,North,32767,7.0,7.0,52,0.00,,,0.00,Wunderground v.1.15,2013-09-30 01:30:00,
2013-09-29 20:40:00,62.6,44.7,29.78,North,32767,7.0,7.0,52,0.00,,,0.00,Wunderground v.1.15,2013-09-30 01:40:00,
2013-09-29 20:50:00,62.4,45.0,29.78,North,32767,6.0,23.0,53,0.00,,,0.00,Wunderground v.1.15,2013-09-30 01:50:00,
2013-09-29 21:00:00,62.0,44.7,29.78,North,32767,7.0,7.0,53,0.00,,,0.00,Wunderground v.1.15,2013-09-30 02:00:00,
2013-09-29 21:10:00,61.7,44.9,29.78,North,32767,8.0,8.0,54,0.00,,,0.00,Wunderground v.1.15,2013-09-30 02:10:00,
2013-09-29 21:20:00,61.4,44.6,29.79,North,32767,8.0,23.0,54,0.00,,,0.00,Wunderground v.1.15,2013-09-30 02:20:00,
2013-09-29 21:30:00,61.1,44.8,29.79,North,32767,7.0,23.0,55,0.00,,,0.00,Wunderground v.1.15,2013-09-30 02:30:00,
2013-09-29 21:40:00,60.9,44.6,29.78,North,32767,8.0,8.0,55,0.00,,,0.00,Wunderground v.1.15,2013-09-30 02:40:00,
2013-09-29 21:50:00,60.7,44.9,29.79,North,32767,7.0,23.0,56,0.00,,,0.00,Wunderground v.1.15,2013-09-30 02:50:00,
2013-09-29 22:00:00,60.6,44.3,29.79,North,32767,8.0,8.0,55,0.00,,,0.00,Wunderground v.1.15,2013-09-30 03:00:00,
2013-09-29 22:10:00,60.5,44.7,29.79,North,32767,8.0,23.0,56,0.00,,,0.00,Wunderground v.1.15,2013-09-30 03:10:00,
2013-09-29 22:20:00,60.3,44.5,29.79,North,32767,7.0,23.0,56,0.00,,,0.00,Wunderground v.1.15,2013-09-30 03:20:00,
2013-09-29 22:30:00,60.3,44.5,29.79,North,32767,7.0,23.0,56,0.00,,,0.00,Wunderground v.1.15,2013-09-30 03:30:00,
2013-09-29 22:40:00,60.4,44.6,29.79,North,32767,8.0,23.0,56,0.00,,,0.00,Wunderground v.1.15,2013-09-30 03:40:00,
2013-09-29 22:50:00,60.2,44.4,29.79,North,32767,8.0,23.0,56,0.00,,,0.00,Wunderground v.1.15,2013-09-30 03:50:00,
2013-09-29 23:00:00,59.9,44.6,29.78,North,32767,8.0,8.0,57,0.00,,,0.00,Wunderground v.1.15,2013-09-30 04:00:00,
2013-09-29 23:10:00,59.4,44.6,29.78,North,32767,7.0,23.0,58,0.00,,,0.00,Wunderground v.1.15,2013-09-30 04:10:00,
2013-09-29 23:20:00,58.7,44.8,29.79,North,32767,7.0,23.0,60,0.00,,,0.00,Wunderground v.1.15,2013-09-30 04:20:00,
2013-09-29 23:30:00,58.5,44.7,29.78,North,32767,7.0,23.0,60,0.00,,,0.00,Wunderground v.1.15,2013-09-30 04:30:00,
2013-09-29 23:40:00,58.5,44.7,29.78,North,32767,8.0,23.0,60,0.00,,,0.00,Wunderground v.1.15,2013-09-30 04:40:00,
2013-09-29 23:50:00,58.1,44.7,29.78,North,32767,7.0,7.0,61,0.00,,,0.00,Wunderground v.1.15,2013-09-30 04:50:00,